AirNav   Advertisement
 
 390 users online  

8CO1 Prospect Peak Heliport
Texas Creek, Colorado, USA

GOING TO TEXAS CREEK?


FAA INFORMATION EFFECTIVE 14 SEPTEMBER 2017

Location

FAA Identifier: 8CO1
Lat/Long: 38-28-40.0000N / 105-31-16.0000W
38-28.666667N / 105-31.266667W
38.4777778 / -105.5211111
(estimated)
Elevation: 8660 ft. / 2640 m (estimated)
Variation: 11E (1995)
From city: 5 miles NE of TEXAS CREEK, CO
Time zone: UTC -6 (UTC -7 during Standard Time)
Zip code: 81212

Heliport Operations

Heliport use: Private use. Permission required prior to landing
Activation date: 10/1997
Control tower: no
ARTCC: DENVER CENTER
FSS: DENVER FLIGHT SERVICE STATION
Attendance: UNATNDD
Segmented circle: no

Heliport Communications

WX AWOS-3 at 1V6 (20 nm E): 120.025 ((719)784-2014)

Nearby radio navigation aids

VOR radial/distance  VOR name  Freq  Var
FCSr239/37.9BUTTS VOR/DME108.8012E

 
NDB name  Hdg/Dist  Freq  Var  ID
IRONHORSE240/38.033512EIHS .. .... ...

Heliport Services

Runway Information

Helipad H1

Dimensions: 20 x 20 ft. / 6 x 6 m
Surface: dirt
Traffic pattern: leftleft

Heliport Ownership and Management from official FAA records

Ownership: Privately-owned
Owner: CENTURYLINK
7405 SOUTH PEORIA STREET
ENGLEWOOD, CO 80112
Phone (303) 643-4972
Manager: GEORGE KIMMES
7405 SOUTH PEORIA STREET
ENGLEWOOD, CO 80112
Phone (303) 643-4972
DARREN ALMSKOG 303-304-9960 DARREN.ALMSKOG@CENTURYLINK.COM

Additional Remarks

A52-H1 HAS +30 FT TWR 100 FT W.

Instrument Procedures

There are no published instrument procedures at 8CO1.

Some nearby airports with instrument procedures:

1V6 - Fremont County Airport (20 nm E)
KANK - Harriet Alexander Field Airport (25 nm W)
KAEJ - Central Colorado Regional Airport (35 nm NW)
KCOS - City of Colorado Springs Municipal Airport (43 nm NE)
KPUB - Pueblo Memorial Airport (49 nm E)
 
Loc | Ops | Rwys | IFR | FBO | Links
Com | Nav | Svcs | Stats | Notes


 
Area around 8CO1 (Prospect Peak Heliport)
 
Road maps at: MapQuest Bing Google
 
Aerial photo
No photo
 
Sectional chart

 
Airport distance calculator
Flying to Prospect Peak Heliport? Find the distance to fly.

From to 8CO1

Sunrise and sunset
Times for 23-Sep-2017
 Local
(UTC-6)
 Zulu
(UTC)
Morning civil twilight06:2512:25
Sunrise06:5212:52
Sunset18:5700:57
Evening civil twilight19:2401:24

Current date and time
Zulu (UTC)  23-Sep-2017 10:27:39
Local (UTC-6)  23-Sep-2017 04:27:39
 
METAR
KANK 
25nm W 
231015Z AUTO 00000KT 10SM SCT050 SCT060 SCT100 09/08 A3011 RMK AO1 T00900075
K4BM 
34nm N 
231014Z AUTO 22010G17KT 5SM -RA SCT002 BKN049 OVC070 02/01 A3022 RMK AO2 LTG DSNT SE AND S
KAEJ 
35nm NW 
231015Z AUTO 00000KT 10SM -RA SCT021 SCT037 BKN080 08/06 A3005 RMK AO2 T00810063
KFCS 
37nm E 
230958Z AUTO 33008KT 10SM CLR 12/03 A2993 RMK AO2 SLP079 T01160034
KMYP 
37nm W 
231009Z AUTO 22024G32KT 3SM BR SCT001 BKN006 OVC012 01/01 A3031 RMK AO2 LTG DSNT SE AND SW
K7BM 
38nm NW 
231011Z AUTO 13005KT 07/06 A3013 RMK AO2 LTG DSNT SW PWINO
K04V 
38nm SW 
231011Z AUTO 02003KT 10SM CLR 07/06 A3005 RMK AO2 LTG DSNT S AND W
TAF
KFCS 
37nm E 
230501Z 2305/2411 20012KT 9999 BKN100 BKN200 QNH2987INS BECMG 2314/2315 10012KT 9999 SCT020 BKN040 QNH2991INS BECMG 2318/2319 12012G18KT 8000 -SHRA BKN015 OVC030 QNH2986INS BECMG 2408/2409 16009KT 9999 NSW SCT015 BKN030 QNH2988INS TX21/2305Z TN10/2312Z
KCOS 
43nm NE 
230544Z 2306/2406 07010KT P6SM BKN100 FM230700 04008KT P6SM SCT060 BKN120 FM231400 03009KT P6SM VCSH SCT040 BKN070 FM231600 14010KT P6SM -SHRA SCT020 BKN030 FM231800 16010G20KT P6SM VCSH SCT020 BKN050 FM240100 32010KT P6SM VCSH SCT020 BKN040
KAFF 
44nm NE 
221906Z 2219/2401 15015G25KT 9999 FEW100 SCT200 520006 520609 QNH2985INS TEMPO 2219/2301 15025G35KT 530009 BECMG 2301/2302 15009KT 9999 FEW110 SCT150 530309 QNH2987INS BECMG 2307/2308 35009KT 9999 FEW060 SCT080 QNH2993INS BECMG 2314/2315 14009KT 9999 VCSH SCT008 BKN030 QNH2995INS BECMG 2316/2317 14012G18KT 8000 -SHRA SCT008 OVC030 QNH2991INS TEMPO 2317/2320 BKN008 BECMG 2322/2323 18009KT 9999 NSW SCT008 BKN030 QNH2992INS TX26/2221Z TN09/2312Z LAST NO AMDS AFT 2219 NEXT 2311
NOTAMs
Click for the latest NOTAMs
NOTAMs are issued by the DoD/FAA and will open in a separate window not controlled by AirNav.

 

 
 

Would you like to see your business listed on this page?

 If your business provides an interesting product or service to pilots, flight crews, aircraft, or users of the Prospect Peak Heliport, you should consider listing it here.  To start the listing process, click on the button below
 
Add a business
 

Other Pages about Prospect Peak Heliport

Update a link
 
Copyright © AirNav, LLC. All rights reserved. Privacy Policy  Contact